Smithfield, Ohio
Current Conditions -  °F | °C
As of 7:53 PM on Wednesday 22 Oct 2014 (Local Time) from KHLG Reporting Station
Overcast Overcast  
Wind Chill: 43°   Ceiling: 2100
Heat Index: 48°   Visibility: 10mi
Dew Point: 40°   Wind: 10mph
Humidity: 74%   Direction: 340°NNW
Pressure: 30.18"   Gusts: NA
Location:  40.27°N, 80.78°W
Report Text: KHLG 222353Z 34009KT 10SM OVC021 09/04 A3018 RMK AO2 SLP228 T00890044 10094 20089 53000
Loading
Personal Weather Stations






























Interactive Weather Map
Tropical Storm Tracking
New forecast layout! Learn more

10-Day Weather Forecast

Advertisements
Track Severe Weather on mobile